Time,TemperatureF,DewpointF,PressureIn,WindDirection,WindDirectionDegrees,WindSpeedMPH,WindSpeedGustMPH,Humidity,HourlyPrecipIn,Conditions,Clouds,dailyrainin,SoftwareType,DateUTC
2013-04-25 00:00:00,64.0,61.3,29.82,ESE,112,8.0,13.0,91,0.00,,,0.00,Weather View 32 v70,2013-04-25 04:00:00,
2013-04-25 00:05:00,64.0,60.7,29.82,SE,135,6.0,14.0,89,0.00,,,0.00,Weather View 32 v70,2013-04-25 04:05:00,
2013-04-25 00:10:00,64.0,60.4,29.82,South,180,6.0,14.0,88,0.00,,,0.00,Weather View 32 v70,2013-04-25 04:10:00,
2013-04-25 00:20:00,65.0,60.7,29.83,SE,135,5.0,17.0,86,0.00,,,0.00,Weather View 32 v70,2013-04-25 04:20:00,
2013-04-25 00:25:00,65.0,60.7,29.83,SE,135,10.0,17.0,86,0.00,,,0.00,Weather View 32 v70,2013-04-25 04:25:00,
2013-04-25 00:30:00,65.0,60.7,29.84,SW,225,6.0,18.0,86,0.00,,,0.00,Weather View 32 v70,2013-04-25 04:30:00,
2013-04-25 00:35:00,66.0,61.3,29.84,SSW,202,14.0,22.0,85,0.00,,,0.00,Weather View 32 v70,2013-04-25 04:35:00,
2013-04-25 00:40:00,63.0,53.8,29.86,SSW,202,15.0,33.0,72,0.00,,,0.00,Weather View 32 v70,2013-04-25 04:40:00,
2013-04-25 00:50:00,61.0,50.3,29.87,SW,225,15.0,33.0,68,0.00,,,0.00,Weather View 32 v70,2013-04-25 04:50:00,
2013-04-25 00:55:00,61.0,49.9,29.86,SSW,202,27.0,33.0,67,0.00,,,0.00,Weather View 32 v70,2013-04-25 04:55:00,
2013-04-25 01:00:00,61.0,49.9,29.87,SW,225,14.0,33.0,67,0.00,,,0.00,Weather View 32 v70,2013-04-25 05:00:00,
2013-04-25 01:10:00,60.0,49.0,29.87,SW,225,8.0,33.0,67,0.00,,,0.00,Weather View 32 v70,2013-04-25 05:10:00,
2013-04-25 01:20:00,60.0,48.2,29.88,WSW,248,9.0,33.0,65,0.00,,,0.00,Weather View 32 v70,2013-04-25 05:20:00,
2013-04-25 01:25:00,59.0,47.2,29.89,SW,225,11.0,33.0,65,0.00,,,0.00,Weather View 32 v70,2013-04-25 05:25:00,
2013-04-25 01:30:00,59.0,46.8,29.89,South,180,12.0,33.0,64,0.00,,,0.00,Weather View 32 v70,2013-04-25 05:30:00,
2013-04-25 01:40:00,58.0,45.0,29.90,SW,225,12.0,31.0,62,0.00,,,0.00,Weather View 32 v70,2013-04-25 05:40:00,
2013-04-25 01:50:00,56.0,41.8,29.91,SSW,202,8.0,28.0,59,0.00,,,0.00,Weather View 32 v70,2013-04-25 05:50:00,
2013-04-25 01:55:00,56.0,41.8,29.92,SW,225,10.0,28.0,59,0.00,,,0.00,Weather View 32 v70,2013-04-25 05:55:00,
2013-04-25 02:00:00,55.0,40.9,29.92,SW,225,16.0,27.0,59,0.00,,,0.00,Weather View 32 v70,2013-04-25 06:00:00,
2013-04-25 02:05:00,55.0,41.3,29.93,SW,225,10.0,27.0,60,0.00,,,0.00,Weather View 32 v70,2013-04-25 06:05:00,
2013-04-25 02:10:00,55.0,41.8,29.93,South,180,5.0,27.0,61,0.00,,,0.00,Weather View 32 v70,2013-04-25 06:10:00,
2013-04-25 02:20:00,54.0,41.7,29.94,SW,225,11.0,27.0,63,0.00,,,0.00,Weather View 32 v70,2013-04-25 06:20:00,
2013-04-25 02:25:00,54.0,41.7,29.94,SW,225,9.0,27.0,63,0.00,,,0.00,Weather View 32 v70,2013-04-25 06:25:00,
2013-04-25 02:34:00,53.0,39.9,29.94,SSW,202,10.0,32.0,61,0.00,,,0.00,Weather View 32 v70,2013-04-25 06:34:00,
2013-04-25 02:40:00,53.0,39.9,29.94,SW,225,10.0,32.0,61,0.00,,,0.00,Weather View 32 v70,2013-04-25 06:40:00,
2013-04-25 02:50:00,52.0,38.9,29.94,SW,225,12.0,32.0,61,0.00,,,0.00,Weather View 32 v70,2013-04-25 06:50:00,
2013-04-25 03:00:00,52.0,38.9,29.96,SW,225,6.0,32.0,61,0.00,,,0.00,Weather View 32 v70,2013-04-25 07:00:00,
2013-04-25 03:05:00,52.0,38.9,29.97,South,180,12.0,32.0,61,0.00,,,0.00,Weather View 32 v70,2013-04-25 07:05:00,
2013-04-25 03:10:00,51.0,38.0,29.96,SW,225,6.0,32.0,61,0.00,,,0.00,Weather View 32 v70,2013-04-25 07:10:00,
2013-04-25 03:15:00,51.0,38.0,29.95,South,180,8.0,32.0,61,0.00,,,0.00,Weather View 32 v70,2013-04-25 07:15:00,
2013-04-25 03:20:00,51.0,38.4,29.96,SSW,202,16.0,32.0,62,0.00,,,0.00,Weather View 32 v70,2013-04-25 07:20:00,
2013-04-25 03:25:00,51.0,38.4,29.96,SSE,158,5.0,32.0,62,0.00,,,0.00,Weather View 32 v70,2013-04-25 07:25:00,
2013-04-25 03:30:00,51.0,38.4,29.96,SSW,202,10.0,30.0,62,0.00,,,0.00,Weather View 32 v70,2013-04-25 07:30:00,
2013-04-25 03:40:00,50.0,37.5,29.96,WSW,248,12.0,26.0,62,0.00,,,0.00,Weather View 32 v70,2013-04-25 07:40:00,
2013-04-25 03:50:00,50.0,37.5,29.98,SSW,202,8.0,26.0,62,0.00,,,0.00,Weather View 32 v70,2013-04-25 07:50:00,
2013-04-25 03:55:00,50.0,37.5,29.98,South,180,6.0,26.0,62,0.00,,,0.00,Weather View 32 v70,2013-04-25 07:55:00,
2013-04-25 04:00:00,50.0,36.6,29.99,West,270,10.0,24.0,60,0.00,,,0.00,Weather View 32 v70,2013-04-25 08:00:00,
2013-04-25 04:10:00,50.0,36.6,29.98,SSW,202,5.0,24.0,60,0.00,,,0.00,Weather View 32 v70,2013-04-25 08:10:00,
2013-04-25 04:15:00,50.0,36.2,29.99,SW,225,10.0,24.0,59,0.00,,,0.00,Weather View 32 v70,2013-04-25 08:15:00,
2013-04-25 04:20:00,50.0,36.6,29.99,SSW,202,9.0,24.0,60,0.00,,,0.00,Weather View 32 v70,2013-04-25 08:20:00,
2013-04-25 04:25:00,50.0,36.6,30.00,South,180,5.0,24.0,60,0.00,,,0.00,Weather View 32 v70,2013-04-25 08:25:00,
2013-04-25 04:30:00,50.0,36.6,30.01,SW,225,10.0,24.0,60,0.00,,,0.00,Weather View 32 v70,2013-04-25 08:30:00,
2013-04-25 04:35:00,50.0,36.6,30.01,WSW,248,12.0,24.0,60,0.00,,,0.00,Weather View 32 v70,2013-04-25 08:35:00,
2013-04-25 04:45:00,49.0,35.7,30.01,SSW,202,19.0,24.0,60,0.00,,,0.00,Weather View 32 v70,2013-04-25 08:45:00,
2013-04-25 04:55:00,49.0,35.7,30.02,SW,225,11.0,24.0,60,0.00,,,0.00,Weather View 32 v70,2013-04-25 08:55:00,
2013-04-25 05:00:00,49.0,36.1,30.03,SSW,202,12.0,24.0,61,0.00,,,0.00,Weather View 32 v70,2013-04-25 09:00:00,
2013-04-25 05:10:00,49.0,36.1,30.03,SSW,202,6.0,24.0,61,0.00,,,0.00,Weather View 32 v70,2013-04-25 09:10:00,
2013-04-25 05:15:00,49.0,36.1,30.04,SW,225,8.0,24.0,61,0.00,,,0.00,Weather View 32 v70,2013-04-25 09:15:00,
2013-04-25 05:20:00,49.0,36.5,30.04,SSW,202,18.0,24.0,62,0.00,,,0.00,Weather View 32 v70,2013-04-25 09:20:00,
2013-04-25 05:30:00,48.0,35.6,30.06,SW,225,8.0,24.0,62,0.00,,,0.00,Weather View 32 v70,2013-04-25 09:30:00,
2013-04-25 05:35:00,48.0,35.6,30.06,SSW,202,10.0,24.0,62,0.00,,,0.00,Weather View 32 v70,2013-04-25 09:35:00,
2013-04-25 05:45:00,48.0,36.0,30.07,SW,225,13.0,24.0,63,0.00,,,0.00,Weather View 32 v70,2013-04-25 09:45:00,
2013-04-25 05:50:00,48.0,36.0,30.07,WSW,248,10.0,24.0,63,0.00,,,0.00,Weather View 32 v70,2013-04-25 09:50:00,
2013-04-25 05:55:00,47.0,35.0,30.08,SW,225,8.0,24.0,63,0.00,,,0.00,Weather View 32 v70,2013-04-25 09:55:00,
2013-04-25 06:00:00,47.0,35.0,30.08,SW,225,5.0,24.0,63,0.00,,,0.00,Weather View 32 v70,2013-04-25 10:00:00,
2013-04-25 06:10:00,47.0,35.4,30.08,SSW,202,6.0,19.0,64,0.00,,,0.00,Weather View 32 v70,2013-04-25 10:10:00,
2013-04-25 06:15:00,47.0,35.8,30.08,SSW,202,8.0,19.0,65,0.00,,,0.00,Weather View 32 v70,2013-04-25 10:15:00,
2013-04-25 06:20:00,46.0,34.9,30.09,SW,225,8.0,19.0,65,0.00,,,0.00,Weather View 32 v70,2013-04-25 10:20:00,
2013-04-25 06:30:00,46.0,33.7,30.10,SW,225,6.0,19.0,62,0.00,,,0.00,Weather View 32 v70,2013-04-25 10:30:00,
2013-04-25 06:36:00,46.0,33.7,30.11,WSW,248,11.0,19.0,62,0.00,,,0.00,Weather View 32 v70,2013-04-25 10:36:00,
2013-04-25 06:45:00,46.0,33.7,30.11,WNW,292,8.0,19.0,62,0.00,,,0.00,Weather View 32 v70,2013-04-25 10:45:00,
2013-04-25 06:50:00,46.0,33.7,30.11,SSW,202,5.0,19.0,62,0.00,,,0.00,Weather View 32 v70,2013-04-25 10:50:00,
2013-04-25 06:55:00,46.0,33.7,30.12,WSW,248,6.0,19.0,62,0.00,,,0.00,Weather View 32 v70,2013-04-25 10:55:00,
2013-04-25 07:05:00,46.0,33.3,30.12,South,180,10.0,19.0,61,0.00,,,0.00,Weather View 32 v70,2013-04-25 11:05:00,
2013-04-25 07:10:00,46.0,32.9,30.12,SSW,202,8.0,19.0,60,0.00,,,0.00,Weather View 32 v70,2013-04-25 11:10:00,
2013-04-25 07:20:00,47.0,33.8,30.13,SSW,202,13.0,19.0,60,0.00,,,0.00,Weather View 32 v70,2013-04-25 11:20:00,
2013-04-25 07:30:00,47.0,33.0,30.14,SW,225,6.0,19.0,58,0.00,,,0.00,Weather View 32 v70,2013-04-25 11:30:00,
2013-04-25 07:35:00,47.0,32.5,30.14,South,180,10.0,19.0,57,0.00,,,0.00,Weather View 32 v70,2013-04-25 11:35:00,
2013-04-25 07:40:00,47.0,32.5,30.14,South,180,8.0,19.0,57,0.00,,,0.00,Weather View 32 v70,2013-04-25 11:40:00,
2013-04-25 07:50:00,47.0,32.5,30.15,SW,225,10.0,19.0,57,0.00,,,0.00,Weather View 32 v70,2013-04-25 11:50:00,
2013-04-25 08:00:00,48.0,33.5,30.15,South,180,7.0,19.0,57,0.00,,,0.00,Weather View 32 v70,2013-04-25 12:00:00,
2013-04-25 08:05:00,47.0,31.6,30.15,SW,225,16.0,22.0,55,0.00,,,0.00,Weather View 32 v70,2013-04-25 12:05:00,
2013-04-25 08:10:00,47.0,32.1,30.15,SW,225,14.0,22.0,56,0.00,,,0.00,Weather View 32 v70,2013-04-25 12:10:00,
2013-04-25 08:15:00,47.0,32.1,30.15,SSW,202,7.0,22.0,56,0.00,,,0.00,Weather View 32 v70,2013-04-25 12:15:00,
2013-04-25 08:20:00,47.0,31.6,30.15,South,180,12.0,22.0,55,0.00,,,0.00,Weather View 32 v70,2013-04-25 12:20:00,
2013-04-25 08:30:00,48.0,32.6,30.16,SW,225,9.0,22.0,55,0.00,,,0.00,Weather View 32 v70,2013-04-25 12:30:00,
2013-04-25 08:35:00,48.0,32.1,30.16,SW,225,11.0,22.0,54,0.00,,,0.00,Weather View 32 v70,2013-04-25 12:35:00,
2013-04-25 08:40:00,48.0,32.1,30.16,South,180,10.0,22.0,54,0.00,,,0.00,Weather View 32 v70,2013-04-25 12:40:00,
2013-04-25 08:45:00,48.0,32.1,30.16,SW,225,12.0,22.0,54,0.00,,,0.00,Weather View 32 v70,2013-04-25 12:45:00,
2013-04-25 08:50:00,49.0,32.6,30.16,WSW,248,6.0,22.0,53,0.00,,,0.00,Weather View 32 v70,2013-04-25 12:50:00,
2013-04-25 08:55:00,49.0,32.1,30.16,SW,225,10.0,22.0,52,0.00,,,0.00,Weather View 32 v70,2013-04-25 12:55:00,
2013-04-25 09:00:00,49.0,32.1,30.16,SSW,202,13.0,22.0,52,0.00,,,0.00,Weather View 32 v70,2013-04-25 13:00:00,
2013-04-25 09:10:00,49.0,32.1,30.16,WSW,248,9.0,21.0,52,0.00,,,0.00,Weather View 32 v70,2013-04-25 13:10:00,
2013-04-25 09:15:00,49.0,31.6,30.16,SSW,202,13.0,19.0,51,0.00,,,0.00,Weather View 32 v70,2013-04-25 13:15:00,
2013-04-25 09:20:00,49.0,31.1,30.16,SSW,202,7.0,19.0,50,0.00,,,0.00,Weather View 32 v70,2013-04-25 13:20:00,
2013-04-25 09:25:00,50.0,32.6,30.16,NE,45,6.0,19.0,51,0.00,,,0.00,Weather View 32 v70,2013-04-25 13:25:00,
2013-04-25 09:30:00,50.0,32.1,30.16,NW,315,10.0,19.0,50,0.00,,,0.00,Weather View 32 v70,2013-04-25 13:30:00,
2013-04-25 09:38:00,50.0,31.6,30.16,WSW,248,6.0,19.0,49,0.00,,,0.00,Weather View 32 v70,2013-04-25 13:38:00,
2013-04-25 09:45:00,51.0,32.0,30.15,South,180,12.0,19.0,48,0.00,,,0.00,Weather View 32 v70,2013-04-25 13:45:00,
2013-04-25 09:50:00,51.0,32.0,30.15,WSW,248,8.0,19.0,48,0.00,,,0.00,Weather View 32 v70,2013-04-25 13:50:00,
2013-04-25 09:55:00,51.0,32.5,30.15,South,180,10.0,18.0,49,0.00,,,0.00,Weather View 32 v70,2013-04-25 13:55:00,
2013-04-25 10:00:00,51.0,31.4,30.15,SSW,202,8.0,18.0,47,0.00,,,0.00,Weather View 32 v70,2013-04-25 14:00:00,
2013-04-25 10:05:00,51.0,30.9,30.15,SSW,202,6.0,18.0,46,0.00,,,0.00,Weather View 32 v70,2013-04-25 14:05:00,
2013-04-25 10:10:00,52.0,32.4,30.15,SSW,202,14.0,18.0,47,0.00,,,0.00,Weather View 32 v70,2013-04-25 14:10:00,
2013-04-25 10:20:00,52.0,32.4,30.16,SW,225,7.0,20.0,47,0.00,,,0.00,Weather View 32 v70,2013-04-25 14:20:00,
2013-04-25 10:30:00,52.0,31.8,30.16,SW,225,12.0,20.0,46,0.00,,,0.00,Weather View 32 v70,2013-04-25 14:30:00,
2013-04-25 10:38:00,52.0,32.9,30.16,SSW,202,12.0,20.0,48,0.00,,,0.00,Weather View 32 v70,2013-04-25 14:38:00,
2013-04-25 10:45:00,53.0,33.3,30.16,SSW,202,12.0,20.0,47,0.00,,,0.00,Weather View 32 v70,2013-04-25 14:45:00,
2013-04-25 10:50:00,52.0,31.8,30.16,SW,225,11.0,20.0,46,0.00,,,0.00,Weather View 32 v70,2013-04-25 14:50:00,
2013-04-25 10:55:00,52.0,31.3,30.17,SW,225,6.0,20.0,45,0.00,,,0.00,Weather View 32 v70,2013-04-25 14:55:00,
2013-04-25 11:00:00,52.0,31.3,30.17,SW,225,7.0,20.0,45,0.00,,,0.00,Weather View 32 v70,2013-04-25 15:00:00,
2013-04-25 11:10:00,52.0,31.8,30.17,South,180,13.0,20.0,46,0.00,,,0.00,Weather View 32 v70,2013-04-25 15:10:00,
2013-04-25 11:15:00,52.0,31.8,30.17,WSW,248,10.0,20.0,46,0.00,,,0.00,Weather View 32 v70,2013-04-25 15:15:00,
2013-04-25 11:20:00,53.0,33.8,30.17,WSW,248,2.0,20.0,48,0.00,,,0.00,Weather View 32 v70,2013-04-25 15:20:00,
2013-04-25 11:25:00,53.0,33.8,30.17,ESE,112,4.0,20.0,48,0.00,,,0.00,Weather View 32 v70,2013-04-25 15:25:00,
2013-04-25 11:30:00,53.0,33.8,30.17,SSW,202,12.0,20.0,48,0.00,,,0.00,Weather View 32 v70,2013-04-25 15:30:00,
2013-04-25 11:35:00,54.0,34.2,30.17,SSE,158,8.0,20.0,47,0.00,,,0.00,Weather View 32 v70,2013-04-25 15:35:00,
2013-04-25 11:40:00,54.0,32.5,30.17,SSW,202,8.0,20.0,44,0.00,,,0.00,Weather View 32 v70,2013-04-25 15:40:00,
2013-04-25 11:45:00,54.0,32.5,30.16,WSW,248,8.0,18.0,44,0.00,,,0.00,Weather View 32 v70,2013-04-25 15:45:00,
2013-04-25 11:50:00,54.0,30.8,30.16,SSW,202,8.0,18.0,41,0.00,,,0.00,Weather View 32 v70,2013-04-25 15:50:00,
2013-04-25 11:55:00,54.0,31.4,30.16,SSW,202,11.0,18.0,42,0.00,,,0.00,Weather View 32 v70,2013-04-25 15:55:00,
2013-04-25 12:05:00,54.0,31.4,30.16,SW,225,8.0,18.0,42,0.00,,,0.00,Weather View 32 v70,2013-04-25 16:05:00,
2013-04-25 12:10:00,55.0,32.3,30.16,SW,225,7.0,18.0,42,0.00,,,0.00,Weather View 32 v70,2013-04-25 16:10:00,
2013-04-25 12:15:00,56.0,32.6,30.16,WNW,292,8.0,18.0,41,0.00,,,0.00,Weather View 32 v70,2013-04-25 16:15:00,
2013-04-25 12:20:00,56.0,33.8,30.16,SW,225,5.0,18.0,43,0.00,,,0.00,Weather View 32 v70,2013-04-25 16:20:00,
2013-04-25 12:30:00,56.0,30.7,30.16,SW,225,13.0,18.0,38,0.00,,,0.00,Weather View 32 v70,2013-04-25 16:30:00,
2013-04-25 12:35:00,56.0,32.0,30.16,SW,225,5.0,18.0,40,0.00,,,0.00,Weather View 32 v70,2013-04-25 16:35:00,
2013-04-25 12:40:00,57.0,31.6,30.15,SSE,158,5.0,18.0,38,0.00,,,0.00,Weather View 32 v70,2013-04-25 16:40:00,
2013-04-25 12:50:00,58.0,32.5,30.15,SW,225,6.0,18.0,38,0.00,,,0.00,Weather View 32 v70,2013-04-25 16:50:00,
2013-04-25 12:55:00,57.0,30.9,30.15,South,180,10.0,18.0,37,0.00,,,0.00,Weather View 32 v70,2013-04-25 16:55:00,
2013-04-25 13:00:00,57.0,30.9,30.15,SW,225,7.0,18.0,37,0.00,,,0.00,Weather View 32 v70,2013-04-25 17:00:00,
2013-04-25 13:05:00,58.0,31.8,30.15,SW,225,3.0,18.0,37,0.00,,,0.00,Weather View 32 v70,2013-04-25 17:05:00,
2013-04-25 13:10:00,57.0,29.6,30.15,West,270,6.0,18.0,35,0.00,,,0.00,Weather View 32 v70,2013-04-25 17:10:00,
2013-04-25 13:15:00,57.0,30.9,30.14,SSW,202,5.0,18.0,37,0.00,,,0.00,Weather View 32 v70,2013-04-25 17:15:00,
2013-04-25 13:20:00,58.0,32.5,30.14,SSW,202,5.0,18.0,38,0.00,,,0.00,Weather View 32 v70,2013-04-25 17:20:00,
2013-04-25 13:30:00,59.0,33.4,30.14,South,180,4.0,18.0,38,0.00,,,0.00,Weather View 32 v70,2013-04-25 17:30:00,
2013-04-25 13:40:00,59.0,32.7,30.14,SSW,202,7.0,16.0,37,0.00,,,0.00,Weather View 32 v70,2013-04-25 17:40:00,
2013-04-25 13:50:00,59.0,32.0,30.14,WSW,248,3.0,18.0,36,0.00,,,0.00,Weather View 32 v70,2013-04-25 17:50:00,
2013-04-25 13:55:00,59.0,32.0,30.14,West,270,11.0,18.0,36,0.00,,,0.00,Weather View 32 v70,2013-04-25 17:55:00,
2013-04-25 14:00:00,59.0,31.3,30.14,SW,225,5.0,18.0,35,0.00,,,0.00,Weather View 32 v70,2013-04-25 18:00:00,
2013-04-25 14:10:00,60.0,31.5,30.13,West,270,3.0,18.0,34,0.00,,,0.00,Weather View 32 v70,2013-04-25 18:10:00,
2013-04-25 14:15:00,61.0,33.8,30.13,South,180,3.0,18.0,36,0.00,,,0.00,Weather View 32 v70,2013-04-25 18:15:00,
2013-04-25 14:20:00,61.0,33.1,30.13,SW,225,10.0,18.0,35,0.00,,,0.00,Weather View 32 v70,2013-04-25 18:20:00,
2013-04-25 14:30:00,61.0,32.4,30.13,SSW,202,3.0,18.0,34,0.00,,,0.00,Weather View 32 v70,2013-04-25 18:30:00,
2013-04-25 14:40:00,61.0,32.4,30.13,SE,135,6.0,18.0,34,0.00,,,0.00,Weather View 32 v70,2013-04-25 18:40:00,
2013-04-25 14:45:00,61.0,31.6,30.13,South,180,3.0,18.0,33,0.00,,,0.00,Weather View 32 v70,2013-04-25 18:45:00,
2013-04-25 14:50:00,61.0,30.9,30.13,West,270,3.0,15.0,32,0.00,,,0.00,Weather View 32 v70,2013-04-25 18:50:00,
2013-04-25 14:55:00,62.0,31.0,30.13,SSW,202,7.0,15.0,31,0.00,,,0.00,Weather View 32 v70,2013-04-25 18:55:00,
2013-04-25 15:00:00,61.0,30.1,30.13,South,180,6.0,15.0,31,0.00,,,0.00,Weather View 32 v70,2013-04-25 19:00:00,
2013-04-25 15:05:00,62.0,34.0,30.12,South,180,4.0,15.0,35,0.00,,,0.00,Weather View 32 v70,2013-04-25 19:05:00,
2013-04-25 15:10:00,63.0,33.4,30.12,SW,225,6.0,15.0,33,0.00,,,0.00,Weather View 32 v70,2013-04-25 19:10:00,
2013-04-25 15:15:00,62.0,31.7,30.12,SSW,202,13.0,15.0,32,0.00,,,0.00,Weather View 32 v70,2013-04-25 19:15:00,
2013-04-25 15:20:00,63.0,33.4,30.12,SSW,202,6.0,15.0,33,0.00,,,0.00,Weather View 32 v70,2013-04-25 19:20:00,
2013-04-25 15:30:00,62.0,31.0,30.12,SW,225,10.0,14.0,31,0.00,,,0.00,Weather View 32 v70,2013-04-25 19:30:00,
2013-04-25 15:35:00,62.0,31.7,30.12,West,270,3.0,14.0,32,0.00,,,0.00,Weather View 32 v70,2013-04-25 19:35:00,
2013-04-25 15:40:00,62.0,31.7,30.12,ESE,112,3.0,14.0,32,0.00,,,0.00,Weather View 32 v70,2013-04-25 19:40:00,
2013-04-25 15:50:00,62.0,31.0,30.12,WSW,248,11.0,14.0,31,0.00,,,0.00,Weather View 32 v70,2013-04-25 19:50:00,
2013-04-25 15:55:00,63.0,31.8,30.12,SSW,202,9.0,16.0,31,0.00,,,0.00,Weather View 32 v70,2013-04-25 19:55:00,
2013-04-25 16:00:00,63.0,31.0,30.12,SW,225,5.0,16.0,30,0.00,,,0.00,Weather View 32 v70,2013-04-25 20:00:00,
2013-04-25 16:10:00,63.0,31.0,30.12,South,180,6.0,16.0,30,0.00,,,0.00,Weather View 32 v70,2013-04-25 20:10:00,
2013-04-25 16:15:00,63.0,30.2,30.12,SE,135,3.0,16.0,29,0.00,,,0.00,Weather View 32 v70,2013-04-25 20:15:00,
2013-04-25 16:20:00,64.0,31.0,30.12,SSW,202,8.0,16.0,29,0.00,,,0.00,Weather View 32 v70,2013-04-25 20:20:00,
2013-04-25 16:25:00,63.0,28.4,30.12,SSW,202,7.0,16.0,27,0.00,,,0.00,Weather View 32 v70,2013-04-25 20:25:00,
2013-04-25 16:30:00,63.0,28.4,30.12,SW,225,6.0,16.0,27,0.00,,,0.00,Weather View 32 v70,2013-04-25 20:30:00,
2013-04-25 16:40:00,63.0,27.5,30.12,SSW,202,5.0,16.0,26,0.00,,,0.00,Weather View 32 v70,2013-04-25 20:40:00,
2013-04-25 16:55:00,64.0,29.3,30.11,SSW,202,5.0,16.0,27,0.00,,,0.00,Weather View 32 v70,2013-04-25 20:55:00,
2013-04-25 17:00:00,64.0,28.4,30.11,SSW,202,2.0,12.0,26,0.00,,,0.00,Weather View 32 v70,2013-04-25 21:00:00,
2013-04-25 17:10:00,64.0,28.4,30.11,South,180,5.0,12.0,26,0.00,,,0.00,Weather View 32 v70,2013-04-25 21:10:00,
2013-04-25 17:20:00,64.0,29.3,30.12,SSW,202,2.0,12.0,27,0.00,,,0.00,Weather View 32 v70,2013-04-25 21:20:00,
2013-04-25 17:30:00,64.0,30.2,30.12,SSW,202,5.0,12.0,28,0.00,,,0.00,Weather View 32 v70,2013-04-25 21:30:00,
2013-04-25 17:40:00,65.0,31.0,30.12,ENE,68,3.0,12.0,28,0.00,,,0.00,Weather View 32 v70,2013-04-25 21:40:00,
2013-04-25 17:50:00,65.0,30.1,30.13,SE,135,3.0,12.0,27,0.00,,,0.00,Weather View 32 v70,2013-04-25 21:50:00,
2013-04-25 17:55:00,65.0,29.2,30.13,SSE,158,4.0,12.0,26,0.00,,,0.00,Weather View 32 v70,2013-04-25 21:55:00,
2013-04-25 18:05:00,65.0,28.2,30.13,South,180,5.0,10.0,25,0.00,,,0.00,Weather View 32 v70,2013-04-25 22:05:00,
2013-04-25 18:15:00,64.0,31.0,30.13,SE,135,4.0,11.0,29,0.00,,,0.00,Weather View 32 v70,2013-04-25 22:15:00,
2013-04-25 18:20:00,63.0,30.2,30.13,SE,135,6.0,11.0,29,0.00,,,0.00,Weather View 32 v70,2013-04-25 22:20:00,
2013-04-25 18:25:00,63.0,31.0,30.13,SE,135,9.0,11.0,30,0.00,,,0.00,Weather View 32 v70,2013-04-25 22:25:00,
2013-04-25 18:30:00,63.0,30.2,30.13,ESE,112,8.0,11.0,29,0.00,,,0.00,Weather View 32 v70,2013-04-25 22:30:00,
2013-04-25 18:40:00,63.0,31.0,30.13,ESE,112,2.0,11.0,30,0.00,,,0.00,Weather View 32 v70,2013-04-25 22:40:00,
2013-04-25 18:50:00,63.0,31.8,30.13,SE,135,4.0,11.0,31,0.00,,,0.00,Weather View 32 v70,2013-04-25 22:50:00,
2013-04-25 18:55:00,63.0,31.8,30.13,SE,135,8.0,11.0,31,0.00,,,0.00,Weather View 32 v70,2013-04-25 22:55:00,
2013-04-25 19:00:00,63.0,31.8,30.14,SE,135,3.0,11.0,31,0.00,,,0.00,Weather View 32 v70,2013-04-25 23:00:00,
2013-04-25 19:10:00,62.0,30.1,30.14,ESE,112,5.0,11.0,30,0.00,,,0.00,Weather View 32 v70,2013-04-25 23:10:00,
2013-04-25 19:20:00,62.0,31.0,30.14,SE,135,3.0,11.0,31,0.00,,,0.00,Weather View 32 v70,2013-04-25 23:20:00,
2013-04-25 19:25:00,62.0,31.0,30.14,ESE,112,2.0,11.0,31,0.00,,,0.00,Weather View 32 v70,2013-04-25 23:25:00,
2013-04-25 19:30:00,62.0,31.7,30.14,ESE,112,3.0,11.0,32,0.00,,,0.00,Weather View 32 v70,2013-04-25 23:30:00,
2013-04-25 19:35:00,61.0,30.9,30.14,SE,135,2.0,11.0,32,0.00,,,0.00,Weather View 32 v70,2013-04-25 23:35:00,
2013-04-25 19:44:00,61.0,31.6,30.14,ESE,112,2.0,11.0,33,0.00,,,0.00,Weather View 32 v70,2013-04-25 23:44:00,
2013-04-25 19:50:00,60.0,32.9,30.15,ESE,112,1.0,11.0,36,0.00,,,0.00,Weather View 32 v70,2013-04-25 23:50:00,
2013-04-25 19:55:00,60.0,33.6,30.15,East,90,1.0,11.0,37,0.00,,,0.00,Weather View 32 v70,2013-04-25 23:55:00,
2013-04-25 20:00:00,59.0,32.7,30.15,ESE,112,1.0,11.0,37,0.00,,,0.00,Weather View 32 v70,2013-04-26 00:00:00,
2013-04-25 20:05:00,59.0,34.7,30.15,ESE,112,1.0,11.0,40,0.00,,,0.00,Weather View 32 v70,2013-04-26 00:05:00,
2013-04-25 20:10:00,58.0,33.8,30.16,SE,135,2.0,6.0,40,0.00,,,0.00,Weather View 32 v70,2013-04-26 00:10:00,
2013-04-25 20:15:00,58.0,32.5,30.16,SSE,158,1.0,5.0,38,0.00,,,0.00,Weather View 32 v70,2013-04-26 00:15:00,
2013-04-25 20:20:00,58.0,32.5,30.16,ESE,112,1.0,5.0,38,0.00,,,0.00,Weather View 32 v70,2013-04-26 00:20:00,
2013-04-25 20:30:00,57.0,32.2,30.16,ESE,112,2.0,3.0,39,0.00,,,0.00,Weather View 32 v70,2013-04-26 00:30:00,
2013-04-25 20:35:00,57.0,33.5,30.17,ESE,112,2.0,3.0,41,0.00,,,0.00,Weather View 32 v70,2013-04-26 00:35:00,
2013-04-25 20:44:00,57.0,33.5,30.17,ESE,112,2.0,3.0,41,0.00,,,0.00,Weather View 32 v70,2013-04-26 00:44:00,
2013-04-25 20:50:00,56.0,33.2,30.17,SE,135,2.0,3.0,42,0.00,,,0.00,Weather View 32 v70,2013-04-26 00:50:00,
2013-04-25 20:55:00,56.0,32.6,30.18,SE,135,2.0,3.0,41,0.00,,,0.00,Weather View 32 v70,2013-04-26 00:55:00,
2013-04-25 21:05:00,56.0,32.6,30.18,ESE,112,3.0,4.0,41,0.00,,,0.00,Weather View 32 v70,2013-04-26 01:05:00,
2013-04-25 21:10:00,55.0,32.3,30.18,ESE,112,2.0,4.0,42,0.00,,,0.00,Weather View 32 v70,2013-04-26 01:10:00,
2013-04-25 21:20:00,55.0,34.0,30.19,ESE,112,1.0,4.0,45,0.00,,,0.00,Weather View 32 v70,2013-04-26 01:20:00,
2013-04-25 21:30:00,54.0,34.7,30.19,ESE,112,2.0,4.0,48,0.00,,,0.00,Weather View 32 v70,2013-04-26 01:30:00,
2013-04-25 21:35:00,54.0,34.7,30.19,ESE,112,2.0,4.0,48,0.00,,,0.00,Weather View 32 v70,2013-04-26 01:35:00,
2013-04-25 21:40:00,53.0,33.8,30.19,ESE,112,2.0,4.0,48,0.00,,,0.00,Weather View 32 v70,2013-04-26 01:40:00,
2013-04-25 21:45:00,53.0,33.8,30.20,ESE,112,1.0,4.0,48,0.00,,,0.00,Weather View 32 v70,2013-04-26 01:45:00,
2013-04-25 21:50:00,53.0,34.3,30.20,ESE,112,1.0,4.0,49,0.00,,,0.00,Weather View 32 v70,2013-04-26 01:50:00,
2013-04-25 21:55:00,53.0,34.3,30.20,ESE,112,1.0,4.0,49,0.00,,,0.00,Weather View 32 v70,2013-04-26 01:55:00,
2013-04-25 22:00:00,53.0,33.8,30.20,ESE,112,1.0,4.0,48,0.00,,,0.00,Weather View 32 v70,2013-04-26 02:00:00,
2013-04-25 22:10:00,52.0,33.9,30.20,ESE,112,1.0,3.0,50,0.00,,,0.00,Weather View 32 v70,2013-04-26 02:10:00,
2013-04-25 22:20:00,51.0,34.4,30.21,East,90,1.0,3.0,53,0.00,,,0.00,Weather View 32 v70,2013-04-26 02:20:00,
2013-04-25 22:30:00,51.0,34.9,30.21,ESE,112,1.0,3.0,54,0.00,,,0.00,Weather View 32 v70,2013-04-26 02:30:00,
2013-04-25 22:40:00,50.0,34.0,30.21,ESE,112,1.0,3.0,54,0.00,,,0.00,Weather View 32 v70,2013-04-26 02:40:00,
2013-04-25 22:45:00,50.0,34.0,30.21,ESE,112,1.0,3.0,54,0.00,,,0.00,Weather View 32 v70,2013-04-26 02:45:00,
2013-04-25 22:55:00,51.0,33.0,30.21,South,180,2.0,3.0,50,0.00,,,0.00,Weather View 32 v70,2013-04-26 02:55:00,
2013-04-25 23:00:00,51.0,32.5,30.21,South,180,1.0,3.0,49,0.00,,,0.00,Weather View 32 v70,2013-04-26 03:00:00,
2013-04-25 23:10:00,52.0,32.9,30.21,SSE,158,1.0,3.0,48,0.00,,,0.00,Weather View 32 v70,2013-04-26 03:10:00,
2013-04-25 23:15:00,51.0,32.0,30.21,ESE,112,1.0,3.0,48,0.00,,,0.00,Weather View 32 v70,2013-04-26 03:15:00,
2013-04-25 23:20:00,51.0,33.0,30.21,ESE,112,1.0,3.0,50,0.00,,,0.00,Weather View 32 v70,2013-04-26 03:20:00,
2013-04-25 23:25:00,51.0,33.5,30.22,ESE,112,2.0,3.0,51,0.00,,,0.00,Weather View 32 v70,2013-04-26 03:25:00,
2013-04-25 23:30:00,50.0,32.6,30.22,NE,45,1.0,3.0,51,0.00,,,0.00,Weather View 32 v70,2013-04-26 03:30:00,
2013-04-25 23:40:00,48.0,33.0,30.21,NNE,22,3.0,4.0,56,0.00,,,0.00,Weather View 32 v70,2013-04-26 03:40:00,
2013-04-25 23:46:00,47.0,33.0,30.21,NNE,22,2.0,4.0,58,0.00,,,0.00,Weather View 32 v70,2013-04-26 03:46:00,
2013-04-25 23:55:00,48.0,33.9,30.22,NNE,22,2.0,4.0,58,0.00,,,0.00,Weather View 32 v70,2013-04-26 03:55:00,